sensor_id;sensor_type;location;lat;lon;timestamp;temperature;humidity
41447;DHT22;27185;52.040;4.490;2024-03-02T00:01:44;8.90;99.90
41447;DHT22;27185;52.040;4.490;2024-03-02T00:04:33;8.80;99.90
41447;DHT22;27185;52.040;4.490;2024-03-02T00:07:23;8.80;99.90
41447;DHT22;27185;52.040;4.490;2024-03-02T00:10:16;8.70;99.90
41447;DHT22;27185;52.040;4.490;2024-03-02T00:13:19;8.70;99.90
41447;DHT22;27185;52.040;4.490;2024-03-02T00:16:08;8.60;99.90
41447;DHT22;27185;52.040;4.490;2024-03-02T00:19:07;8.60;99.90
41447;DHT22;27185;52.040;4.490;2024-03-02T00:21:55;8.60;99.90
41447;DHT22;27185;52.040;4.490;2024-03-02T00:24:44;8.60;99.90
41447;DHT22;27185;52.040;4.490;2024-03-02T00:27:36;8.60;99.90
41447;DHT22;27185;52.040;4.490;2024-03-02T00:31:04;8.50;99.90
41447;DHT22;27185;52.040;4.490;2024-03-02T00:34:18;8.50;99.90
41447;DHT22;27185;52.040;4.490;2024-03-02T00:37:19;8.50;99.90
41447;DHT22;27185;52.040;4.490;2024-03-02T00:40:27;8.40;99.90
41447;DHT22;27185;52.040;4.490;2024-03-02T00:46:24;8.40;99.90
41447;DHT22;27185;52.040;4.490;2024-03-02T00:49:22;8.40;99.90
41447;DHT22;27185;52.040;4.490;2024-03-02T00:52:11;8.40;99.90
41447;DHT22;27185;52.040;4.490;2024-03-02T00:55:01;8.30;99.90
41447;DHT22;27185;52.040;4.490;2024-03-02T00:58:02;8.30;99.90
41447;DHT22;27185;52.040;4.490;2024-03-02T01:00:54;8.30;99.90
41447;DHT22;27185;52.040;4.490;2024-03-02T01:03:41;8.30;99.90
41447;DHT22;27185;52.040;4.490;2024-03-02T01:06:38;8.30;99.90
41447;DHT22;27185;52.040;4.490;2024-03-02T01:09:25;8.30;99.90
41447;DHT22;27185;52.040;4.490;2024-03-02T01:12:14;8.30;99.90
41447;DHT22;27185;52.040;4.490;2024-03-02T01:15:04;8.30;99.90
41447;DHT22;27185;52.040;4.490;2024-03-02T01:17:55;8.30;99.90
41447;DHT22;27185;52.040;4.490;2024-03-02T01:20:43;8.30;99.90
41447;DHT22;27185;52.040;4.490;2024-03-02T01:23:39;8.30;99.90
41447;DHT22;27185;52.040;4.490;2024-03-02T01:26:17;8.30;99.90
41447;DHT22;27185;52.040;4.490;2024-03-02T01:29:08;8.30;99.90
41447;DHT22;27185;52.040;4.490;2024-03-02T01:31:57;8.30;99.90
41447;DHT22;27185;52.040;4.490;2024-03-02T01:34:43;8.20;99.90
41447;DHT22;27185;52.040;4.490;2024-03-02T01:37:35;8.20;99.90
41447;DHT22;27185;52.040;4.490;2024-03-02T01:40:27;8.20;99.90
41447;DHT22;27185;52.040;4.490;2024-03-02T01:43:14;8.20;99.90
41447;DHT22;27185;52.040;4.490;2024-03-02T01:46:00;8.20;99.90
41447;DHT22;27185;52.040;4.490;2024-03-02T01:48:49;8.20;99.90
41447;DHT22;27185;52.040;4.490;2024-03-02T01:51:45;8.30;99.90
41447;DHT22;27185;52.040;4.490;2024-03-02T01:54:31;8.30;99.90
41447;DHT22;27185;52.040;4.490;2024-03-02T01:57:23;8.30;99.90
41447;DHT22;27185;52.040;4.490;2024-03-02T02:00:10;8.30;99.90
41447;DHT22;27185;52.040;4.490;2024-03-02T02:02:59;8.30;99.90
41447;DHT22;27185;52.040;4.490;2024-03-02T02:05:45;8.30;99.90
41447;DHT22;27185;52.040;4.490;2024-03-02T02:08:36;8.30;99.90
41447;DHT22;27185;52.040;4.490;2024-03-02T02:11:25;8.40;99.90
41447;DHT22;27185;52.040;4.490;2024-03-02T02:14:12;8.40;99.90
41447;DHT22;27185;52.040;4.490;2024-03-02T02:17:04;8.40;99.90
41447;DHT22;27185;52.040;4.490;2024-03-02T02:19:50;8.40;99.90
41447;DHT22;27185;52.040;4.490;2024-03-02T02:22:36;8.40;99.90
41447;DHT22;27185;52.040;4.490;2024-03-02T02:25:22;8.50;99.90
41447;DHT22;27185;52.040;4.490;2024-03-02T02:28:10;8.50;99.90
41447;DHT22;27185;52.040;4.490;2024-03-02T02:30:57;8.50;99.90
41447;DHT22;27185;52.040;4.490;2024-03-02T02:33:46;8.50;99.90
41447;DHT22;27185;52.040;4.490;2024-03-02T02:36:32;8.50;99.90
41447;DHT22;27185;52.040;4.490;2024-03-02T02:39:24;8.50;99.90
41447;DHT22;27185;52.040;4.490;2024-03-02T02:42:11;8.50;99.90
41447;DHT22;27185;52.040;4.490;2024-03-02T02:44:57;8.50;99.90
41447;DHT22;27185;52.040;4.490;2024-03-02T02:47:49;8.50;99.90
41447;DHT22;27185;52.040;4.490;2024-03-02T02:50:35;8.60;99.90
41447;DHT22;27185;52.040;4.490;2024-03-02T02:53:21;8.60;99.90
41447;DHT22;27185;52.040;4.490;2024-03-02T02:56:06;8.50;99.90
41447;DHT22;27185;52.040;4.490;2024-03-02T02:58:52;8.50;99.90
41447;DHT22;27185;52.040;4.490;2024-03-02T03:01:38;8.50;99.90
41447;DHT22;27185;52.040;4.490;2024-03-02T03:04:23;8.50;99.90
41447;DHT22;27185;52.040;4.490;2024-03-02T03:07:09;8.50;99.90
41447;DHT22;27185;52.040;4.490;2024-03-02T03:09:55;8.50;99.90
41447;DHT22;27185;52.040;4.490;2024-03-02T03:12:41;8.60;99.90
41447;DHT22;27185;52.040;4.490;2024-03-02T03:15:28;8.60;99.90
41447;DHT22;27185;52.040;4.490;2024-03-02T03:18:13;8.60;99.90
41447;DHT22;27185;52.040;4.490;2024-03-02T03:20:59;8.60;99.90
41447;DHT22;27185;52.040;4.490;2024-03-02T03:23:45;8.60;99.90
41447;DHT22;27185;52.040;4.490;2024-03-02T03:26:30;8.60;99.90
41447;DHT22;27185;52.040;4.490;2024-03-02T03:29:16;8.60;99.90
41447;DHT22;27185;52.040;4.490;2024-03-02T03:32:02;8.60;99.90
41447;DHT22;27185;52.040;4.490;2024-03-02T03:34:48;8.70;99.90
41447;DHT22;27185;52.040;4.490;2024-03-02T03:37:34;8.70;99.90
41447;DHT22;27185;52.040;4.490;2024-03-02T03:40:20;8.70;99.90
41447;DHT22;27185;52.040;4.490;2024-03-02T03:43:05;8.70;99.90
41447;DHT22;27185;52.040;4.490;2024-03-02T03:45:51;8.70;99.90
41447;DHT22;27185;52.040;4.490;2024-03-02T03:48:37;8.70;99.90
41447;DHT22;27185;52.040;4.490;2024-03-02T03:51:22;8.80;99.90
41447;DHT22;27185;52.040;4.490;2024-03-02T03:54:08;8.80;99.90
41447;DHT22;27185;52.040;4.490;2024-03-02T03:56:56;8.80;99.90
41447;DHT22;27185;52.040;4.490;2024-03-02T03:59:42;8.80;99.90
41447;DHT22;27185;52.040;4.490;2024-03-02T04:02:28;8.80;99.90
41447;DHT22;27185;52.040;4.490;2024-03-02T04:05:13;8.80;99.90
41447;DHT22;27185;52.040;4.490;2024-03-02T04:07:59;8.80;99.90
41447;DHT22;27185;52.040;4.490;2024-03-02T04:10:46;8.80;99.90
41447;DHT22;27185;52.040;4.490;2024-03-02T04:13:32;8.80;99.90
41447;DHT22;27185;52.040;4.490;2024-03-02T04:16:17;8.80;99.90
41447;DHT22;27185;52.040;4.490;2024-03-02T04:19:03;8.80;99.90
41447;DHT22;27185;52.040;4.490;2024-03-02T04:21:49;8.80;99.90
41447;DHT22;27185;52.040;4.490;2024-03-02T04:24:35;8.70;99.90
41447;DHT22;27185;52.040;4.490;2024-03-02T04:27:20;8.70;99.90
41447;DHT22;27185;52.040;4.490;2024-03-02T04:30:06;8.60;99.90
41447;DHT22;27185;52.040;4.490;2024-03-02T04:32:52;8.60;99.90
41447;DHT22;27185;52.040;4.490;2024-03-02T04:35:38;8.50;99.90
41447;DHT22;27185;52.040;4.490;2024-03-02T04:38:23;8.50;99.90
41447;DHT22;27185;52.040;4.490;2024-03-02T04:41:12;8.40;99.90
41447;DHT22;27185;52.040;4.490;2024-03-02T04:43:57;8.30;99.90
41447;DHT22;27185;52.040;4.490;2024-03-02T04:46:43;8.30;99.90
41447;DHT22;27185;52.040;4.490;2024-03-02T04:49:29;8.30;99.90
41447;DHT22;27185;52.040;4.490;2024-03-02T04:52:15;8.30;99.90
41447;DHT22;27185;52.040;4.490;2024-03-02T04:55:01;8.30;99.90
41447;DHT22;27185;52.040;4.490;2024-03-02T04:58:02;8.30;99.90
41447;DHT22;27185;52.040;4.490;2024-03-02T05:00:48;8.30;99.90
41447;DHT22;27185;52.040;4.490;2024-03-02T05:03:33;8.30;99.90
41447;DHT22;27185;52.040;4.490;2024-03-02T05:06:20;8.30;99.90
41447;DHT22;27185;52.040;4.490;2024-03-02T05:09:06;8.40;99.90
41447;DHT22;27185;52.040;4.490;2024-03-02T05:11:52;8.30;99.90
41447;DHT22;27185;52.040;4.490;2024-03-02T05:14:57;8.30;99.90
41447;DHT22;27185;52.040;4.490;2024-03-02T05:17:43;8.30;99.90
41447;DHT22;27185;52.040;4.490;2024-03-02T05:20:29;8.30;99.90
41447;DHT22;27185;52.040;4.490;2024-03-02T05:23:14;8.30;99.90
41447;DHT22;27185;52.040;4.490;2024-03-02T05:26:00;8.30;99.90
41447;DHT22;27185;52.040;4.490;2024-03-02T05:28:45;8.30;99.90
41447;DHT22;27185;52.040;4.490;2024-03-02T05:31:31;8.40;99.90
41447;DHT22;27185;52.040;4.490;2024-03-02T05:34:17;8.40;99.90
41447;DHT22;27185;52.040;4.490;2024-03-02T05:37:04;8.40;99.90
41447;DHT22;27185;52.040;4.490;2024-03-02T05:39:49;8.40;99.90
41447;DHT22;27185;52.040;4.490;2024-03-02T05:42:35;8.40;99.90
41447;DHT22;27185;52.040;4.490;2024-03-02T05:45:21;8.40;99.90
41447;DHT22;27185;52.040;4.490;2024-03-02T05:48:07;8.40;99.90
41447;DHT22;27185;52.040;4.490;2024-03-02T05:50:53;8.40;99.90
41447;DHT22;27185;52.040;4.490;2024-03-02T05:53:38;8.30;99.90
41447;DHT22;27185;52.040;4.490;2024-03-02T05:56:24;8.30;99.90
41447;DHT22;27185;52.040;4.490;2024-03-02T05:59:10;8.20;99.90
41447;DHT22;27185;52.040;4.490;2024-03-02T06:01:58;8.20;99.90
41447;DHT22;27185;52.040;4.490;2024-03-02T06:04:44;8.20;99.90
41447;DHT22;27185;52.040;4.490;2024-03-02T06:07:30;8.20;99.90
41447;DHT22;27185;52.040;4.490;2024-03-02T06:10:15;8.20;99.90
41447;DHT22;27185;52.040;4.490;2024-03-02T06:13:01;8.20;99.90
41447;DHT22;27185;52.040;4.490;2024-03-02T06:15:47;8.20;99.90
41447;DHT22;27185;52.040;4.490;2024-03-02T06:18:32;8.20;99.90
41447;DHT22;27185;52.040;4.490;2024-03-02T06:21:18;8.20;99.90
41447;DHT22;27185;52.040;4.490;2024-03-02T06:24:04;8.20;99.90
41447;DHT22;27185;52.040;4.490;2024-03-02T06:26:50;8.30;99.90
41447;DHT22;27185;52.040;4.490;2024-03-02T06:29:35;8.30;99.90
41447;DHT22;27185;52.040;4.490;2024-03-02T06:32:21;8.30;99.90
41447;DHT22;27185;52.040;4.490;2024-03-02T06:35:06;8.30;99.90
41447;DHT22;27185;52.040;4.490;2024-03-02T06:37:55;8.40;99.90
41447;DHT22;27185;52.040;4.490;2024-03-02T06:40:41;8.40;99.90
41447;DHT22;27185;52.040;4.490;2024-03-02T06:43:26;8.40;99.90
41447;DHT22;27185;52.040;4.490;2024-03-02T06:46:12;8.40;99.90
41447;DHT22;27185;52.040;4.490;2024-03-02T06:49:00;8.40;99.90
41447;DHT22;27185;52.040;4.490;2024-03-02T06:51:47;8.50;99.90
41447;DHT22;27185;52.040;4.490;2024-03-02T06:54:33;8.50;99.90
41447;DHT22;27185;52.040;4.490;2024-03-02T06:57:20;8.50;99.90
41447;DHT22;27185;52.040;4.490;2024-03-02T07:00:06;8.50;99.90
41447;DHT22;27185;52.040;4.490;2024-03-02T07:02:54;8.50;99.90
41447;DHT22;27185;52.040;4.490;2024-03-02T07:05:39;8.50;99.90
41447;DHT22;27185;52.040;4.490;2024-03-02T07:08:25;8.50;99.90
41447;DHT22;27185;52.040;4.490;2024-03-02T07:11:11;8.40;99.90
41447;DHT22;27185;52.040;4.490;2024-03-02T07:13:56;8.40;99.90
41447;DHT22;27185;52.040;4.490;2024-03-02T07:16:42;8.30;99.90
41447;DHT22;27185;52.040;4.490;2024-03-02T07:19:28;8.30;99.90
41447;DHT22;27185;52.040;4.490;2024-03-02T07:22:14;8.30;99.90
41447;DHT22;27185;52.040;4.490;2024-03-02T07:25:00;8.40;99.90
41447;DHT22;27185;52.040;4.490;2024-03-02T07:27:45;8.40;99.90
41447;DHT22;27185;52.040;4.490;2024-03-02T07:30:31;8.50;99.90
41447;DHT22;27185;52.040;4.490;2024-03-02T07:33:17;8.50;99.90
41447;DHT22;27185;52.040;4.490;2024-03-02T07:36:03;8.50;99.90
41447;DHT22;27185;52.040;4.490;2024-03-02T07:38:49;8.60;99.90
41447;DHT22;27185;52.040;4.490;2024-03-02T07:41:36;8.60;99.90
41447;DHT22;27185;52.040;4.490;2024-03-02T07:44:21;8.60;99.90
41447;DHT22;27185;52.040;4.490;2024-03-02T07:47:07;8.60;99.90
41447;DHT22;27185;52.040;4.490;2024-03-02T07:49:53;8.60;99.90
41447;DHT22;27185;52.040;4.490;2024-03-02T07:52:38;8.60;99.90
41447;DHT22;27185;52.040;4.490;2024-03-02T07:55:24;8.50;99.90
41447;DHT22;27185;52.040;4.490;2024-03-02T07:58:10;8.50;99.90
41447;DHT22;27185;52.040;4.490;2024-03-02T08:00:57;8.50;99.90
41447;DHT22;27185;52.040;4.490;2024-03-02T08:03:43;8.50;99.90
41447;DHT22;27185;52.040;4.490;2024-03-02T08:06:36;8.50;99.90
41447;DHT22;27185;52.040;4.490;2024-03-02T08:09:22;8.40;99.90
41447;DHT22;27185;52.040;4.490;2024-03-02T08:12:07;8.40;99.90
41447;DHT22;27185;52.040;4.490;2024-03-02T08:14:54;8.40;99.90
41447;DHT22;27185;52.040;4.490;2024-03-02T08:17:40;8.40;99.90
41447;DHT22;27185;52.040;4.490;2024-03-02T08:20:30;8.40;99.90
41447;DHT22;27185;52.040;4.490;2024-03-02T08:23:17;8.50;99.90
41447;DHT22;27185;52.040;4.490;2024-03-02T08:26:03;8.50;99.90
41447;DHT22;27185;52.040;4.490;2024-03-02T08:28:49;8.50;99.90
41447;DHT22;27185;52.040;4.490;2024-03-02T08:31:35;8.60;99.90
41447;DHT22;27185;52.040;4.490;2024-03-02T08:34:20;8.60;99.90
41447;DHT22;27185;52.040;4.490;2024-03-02T08:37:06;8.70;99.90
41447;DHT22;27185;52.040;4.490;2024-03-02T08:39:52;8.70;99.90
41447;DHT22;27185;52.040;4.490;2024-03-02T08:42:38;8.80;99.90
41447;DHT22;27185;52.040;4.490;2024-03-02T08:45:23;8.80;99.90
41447;DHT22;27185;52.040;4.490;2024-03-02T08:48:09;8.90;99.90
41447;DHT22;27185;52.040;4.490;2024-03-02T08:50:55;8.90;99.90
41447;DHT22;27185;52.040;4.490;2024-03-02T08:53:41;8.90;99.90
41447;DHT22;27185;52.040;4.490;2024-03-02T08:56:27;9.00;99.90
41447;DHT22;27185;52.040;4.490;2024-03-02T08:59:13;9.00;99.90
41447;DHT22;27185;52.040;4.490;2024-03-02T09:01:59;9.10;99.90
41447;DHT22;27185;52.040;4.490;2024-03-02T09:04:45;9.10;99.90
41447;DHT22;27185;52.040;4.490;2024-03-02T09:07:30;9.20;99.90
41447;DHT22;27185;52.040;4.490;2024-03-02T09:10:16;9.20;99.90
41447;DHT22;27185;52.040;4.490;2024-03-02T09:13:01;9.20;99.90
41447;DHT22;27185;52.040;4.490;2024-03-02T09:15:48;9.30;99.90
41447;DHT22;27185;52.040;4.490;2024-03-02T09:18:33;9.30;99.90
41447;DHT22;27185;52.040;4.490;2024-03-02T09:21:19;9.40;99.90
41447;DHT22;27185;52.040;4.490;2024-03-02T09:24:05;9.40;99.90
41447;DHT22;27185;52.040;4.490;2024-03-02T09:26:52;9.50;99.90
41447;DHT22;27185;52.040;4.490;2024-03-02T09:29:37;9.50;99.90
41447;DHT22;27185;52.040;4.490;2024-03-02T09:32:24;9.60;99.90
41447;DHT22;27185;52.040;4.490;2024-03-02T09:35:09;9.60;99.90
41447;DHT22;27185;52.040;4.490;2024-03-02T09:37:55;9.70;99.90
41447;DHT22;27185;52.040;4.490;2024-03-02T09:40:42;9.70;99.90
41447;DHT22;27185;52.040;4.490;2024-03-02T09:43:27;9.80;99.90
41447;DHT22;27185;52.040;4.490;2024-03-02T09:46:15;9.80;99.90
41447;DHT22;27185;52.040;4.490;2024-03-02T09:49:01;9.90;99.90
41447;DHT22;27185;52.040;4.490;2024-03-02T09:51:48;10.00;99.90
41447;DHT22;27185;52.040;4.490;2024-03-02T09:54:34;10.00;99.90
41447;DHT22;27185;52.040;4.490;2024-03-02T09:57:20;10.10;99.90
41447;DHT22;27185;52.040;4.490;2024-03-02T10:00:06;10.20;99.90
41447;DHT22;27185;52.040;4.490;2024-03-02T10:02:52;10.30;99.90
41447;DHT22;27185;52.040;4.490;2024-03-02T10:05:38;10.30;99.90
41447;DHT22;27185;52.040;4.490;2024-03-02T10:08:23;10.40;99.90
41447;DHT22;27185;52.040;4.490;2024-03-02T10:11:10;10.40;99.90
41447;DHT22;27185;52.040;4.490;2024-03-02T10:14:12;10.50;99.90
41447;DHT22;27185;52.040;4.490;2024-03-02T10:17:06;10.60;99.90
41447;DHT22;27185;52.040;4.490;2024-03-02T10:19:52;10.70;99.90
41447;DHT22;27185;52.040;4.490;2024-03-02T10:22:37;10.70;99.90
41447;DHT22;27185;52.040;4.490;2024-03-02T10:25:31;10.90;99.90
41447;DHT22;27185;52.040;4.490;2024-03-02T10:28:19;11.00;99.90
41447;DHT22;27185;52.040;4.490;2024-03-02T10:31:05;11.00;99.90
41447;DHT22;27185;52.040;4.490;2024-03-02T10:33:51;11.20;99.90
41447;DHT22;27185;52.040;4.490;2024-03-02T10:36:40;11.30;99.90
41447;DHT22;27185;52.040;4.490;2024-03-02T10:39:26;11.30;99.90
41447;DHT22;27185;52.040;4.490;2024-03-02T10:42:12;11.40;99.90
41447;DHT22;27185;52.040;4.490;2024-03-02T10:45:00;11.50;99.90
41447;DHT22;27185;52.040;4.490;2024-03-02T10:47:47;11.50;99.90
41447;DHT22;27185;52.040;4.490;2024-03-02T10:50:32;11.50;99.90
41447;DHT22;27185;52.040;4.490;2024-03-02T10:53:18;11.60;99.90
41447;DHT22;27185;52.040;4.490;2024-03-02T10:56:07;11.60;99.90
41447;DHT22;27185;52.040;4.490;2024-03-02T10:59:19;11.70;99.90
41447;DHT22;27185;52.040;4.490;2024-03-02T11:02:11;11.70;99.90
41447;DHT22;27185;52.040;4.490;2024-03-02T11:05:00;11.80;99.90
41447;DHT22;27185;52.040;4.490;2024-03-02T11:07:49;11.80;99.90
41447;DHT22;27185;52.040;4.490;2024-03-02T11:10:50;11.80;99.90
41447;DHT22;27185;52.040;4.490;2024-03-02T11:13:37;11.90;99.90
41447;DHT22;27185;52.040;4.490;2024-03-02T11:19:19;12.00;99.90
41447;DHT22;27185;52.040;4.490;2024-03-02T11:22:05;12.10;99.90
41447;DHT22;27185;52.040;4.490;2024-03-02T11:24:52;12.20;99.90
41447;DHT22;27185;52.040;4.490;2024-03-02T11:33:23;12.50;99.90
41447;DHT22;27185;52.040;4.490;2024-03-02T11:36:09;12.60;99.90
41447;DHT22;27185;52.040;4.490;2024-03-02T11:38:56;12.70;99.90
41447;DHT22;27185;52.040;4.490;2024-03-02T11:41:42;12.80;99.90
41447;DHT22;27185;52.040;4.490;2024-03-02T11:44:27;13.00;99.90
41447;DHT22;27185;52.040;4.490;2024-03-02T11:47:15;13.10;99.90
41447;DHT22;27185;52.040;4.490;2024-03-02T11:50:01;13.30;99.90
41447;DHT22;27185;52.040;4.490;2024-03-02T11:52:47;13.50;99.90
41447;DHT22;27185;52.040;4.490;2024-03-02T11:55:35;13.50;99.90
41447;DHT22;27185;52.040;4.490;2024-03-02T11:58:25;13.70;99.90
41447;DHT22;27185;52.040;4.490;2024-03-02T12:01:12;13.90;99.90
41447;DHT22;27185;52.040;4.490;2024-03-02T12:03:58;14.40;99.90
41447;DHT22;27185;52.040;4.490;2024-03-02T12:06:46;14.90;99.90
41447;DHT22;27185;52.040;4.490;2024-03-02T12:09:32;15.40;99.90
41447;DHT22;27185;52.040;4.490;2024-03-02T12:12:20;15.90;99.90
41447;DHT22;27185;52.040;4.490;2024-03-02T12:15:07;16.40;99.90
41447;DHT22;27185;52.040;4.490;2024-03-02T12:17:57;16.80;99.90
41447;DHT22;27185;52.040;4.490;2024-03-02T12:20:43;17.20;99.90
41447;DHT22;27185;52.040;4.490;2024-03-02T12:23:29;17.40;99.90
41447;DHT22;27185;52.040;4.490;2024-03-02T12:26:14;17.60;99.90
41447;DHT22;27185;52.040;4.490;2024-03-02T12:29:00;17.50;99.90
41447;DHT22;27185;52.040;4.490;2024-03-02T12:31:51;17.50;99.90
41447;DHT22;27185;52.040;4.490;2024-03-02T12:34:40;17.50;99.90
41447;DHT22;27185;52.040;4.490;2024-03-02T12:37:25;17.60;99.90
41447;DHT22;27185;52.040;4.490;2024-03-02T12:40:14;17.60;99.90
41447;DHT22;27185;52.040;4.490;2024-03-02T12:43:00;17.70;99.90
41447;DHT22;27185;52.040;4.490;2024-03-02T12:45:46;17.90;99.90
41447;DHT22;27185;52.040;4.490;2024-03-02T12:48:32;18.20;99.90
41447;DHT22;27185;52.040;4.490;2024-03-02T12:51:19;18.50;99.90
41447;DHT22;27185;52.040;4.490;2024-03-02T12:54:05;18.80;99.90
41447;DHT22;27185;52.040;4.490;2024-03-02T12:56:51;19.00;99.90
41447;DHT22;27185;52.040;4.490;2024-03-02T12:59:36;19.20;99.90
41447;DHT22;27185;52.040;4.490;2024-03-02T13:02:22;19.40;99.90
41447;DHT22;27185;52.040;4.490;2024-03-02T13:05:08;19.60;99.90
41447;DHT22;27185;52.040;4.490;2024-03-02T13:07:56;19.80;99.90
41447;DHT22;27185;52.040;4.490;2024-03-02T13:10:42;19.90;99.20
41447;DHT22;27185;52.040;4.490;2024-03-02T13:13:31;20.00;99.90
41447;DHT22;27185;52.040;4.490;2024-03-02T13:16:18;20.20;99.20
41447;DHT22;27185;52.040;4.490;2024-03-02T13:19:08;20.30;99.90
41447;DHT22;27185;52.040;4.490;2024-03-02T13:21:53;20.30;99.30
41447;DHT22;27185;52.040;4.490;2024-03-02T13:24:39;20.10;99.50
41447;DHT22;27185;52.040;4.490;2024-03-02T13:27:27;19.80;99.50
41447;DHT22;27185;52.040;4.490;2024-03-02T13:30:13;19.40;99.50
41447;DHT22;27185;52.040;4.490;2024-03-02T13:32:58;19.00;98.80
41447;DHT22;27185;52.040;4.490;2024-03-02T13:35:44;18.50;99.70
41447;DHT22;27185;52.040;4.490;2024-03-02T13:38:30;18.20;99.90
41447;DHT22;27185;52.040;4.490;2024-03-02T13:41:16;17.80;99.90
41447;DHT22;27185;52.040;4.490;2024-03-02T13:44:01;17.50;99.90
41447;DHT22;27185;52.040;4.490;2024-03-02T13:46:47;17.30;99.90
41447;DHT22;27185;52.040;4.490;2024-03-02T13:49:33;17.10;99.90
41447;DHT22;27185;52.040;4.490;2024-03-02T13:52:21;16.90;99.90
41447;DHT22;27185;52.040;4.490;2024-03-02T13:55:07;16.80;99.90
41447;DHT22;27185;52.040;4.490;2024-03-02T13:57:52;16.80;99.90
41447;DHT22;27185;52.040;4.490;2024-03-02T14:00:38;16.90;99.90
41447;DHT22;27185;52.040;4.490;2024-03-02T14:03:24;17.10;99.90
41447;DHT22;27185;52.040;4.490;2024-03-02T14:06:12;17.30;99.90
41447;DHT22;27185;52.040;4.490;2024-03-02T14:08:58;17.40;99.90
41447;DHT22;27185;52.040;4.490;2024-03-02T14:11:45;17.50;99.90
41447;DHT22;27185;52.040;4.490;2024-03-02T14:14:30;17.40;99.90
41447;DHT22;27185;52.040;4.490;2024-03-02T14:17:16;17.40;99.90
41447;DHT22;27185;52.040;4.490;2024-03-02T14:20:02;17.20;99.90
41447;DHT22;27185;52.040;4.490;2024-03-02T14:22:50;17.20;99.90
41447;DHT22;27185;52.040;4.490;2024-03-02T14:25:36;17.20;99.90
41447;DHT22;27185;52.040;4.490;2024-03-02T14:28:21;17.20;99.90
41447;DHT22;27185;52.040;4.490;2024-03-02T14:31:07;17.20;99.90
41447;DHT22;27185;52.040;4.490;2024-03-02T14:33:53;17.20;99.90
41447;DHT22;27185;52.040;4.490;2024-03-02T14:36:40;17.20;99.90
41447;DHT22;27185;52.040;4.490;2024-03-02T14:39:26;17.10;99.90
41447;DHT22;27185;52.040;4.490;2024-03-02T14:42:12;17.10;99.90
41447;DHT22;27185;52.040;4.490;2024-03-02T14:44:58;17.10;99.90
41447;DHT22;27185;52.040;4.490;2024-03-02T14:47:44;17.10;99.90
41447;DHT22;27185;52.040;4.490;2024-03-02T14:50:31;17.00;99.90
41447;DHT22;27185;52.040;4.490;2024-03-02T14:53:16;16.90;99.90
41447;DHT22;27185;52.040;4.490;2024-03-02T14:56:04;16.80;99.90
41447;DHT22;27185;52.040;4.490;2024-03-02T14:58:50;16.70;99.90
41447;DHT22;27185;52.040;4.490;2024-03-02T15:01:36;16.60;99.90
41447;DHT22;27185;52.040;4.490;2024-03-02T15:04:22;16.50;99.90
41447;DHT22;27185;52.040;4.490;2024-03-02T15:07:08;16.30;99.90
41447;DHT22;27185;52.040;4.490;2024-03-02T15:09:53;16.20;99.90
41447;DHT22;27185;52.040;4.490;2024-03-02T15:12:40;16.20;99.90
41447;DHT22;27185;52.040;4.490;2024-03-02T15:15:26;16.00;99.90
41447;DHT22;27185;52.040;4.490;2024-03-02T15:18:12;16.00;99.90
41447;DHT22;27185;52.040;4.490;2024-03-02T15:20:57;15.90;99.90
41447;DHT22;27185;52.040;4.490;2024-03-02T15:23:43;15.80;99.90
41447;DHT22;27185;52.040;4.490;2024-03-02T15:26:28;15.80;99.90
41447;DHT22;27185;52.040;4.490;2024-03-02T15:29:14;15.70;99.90
41447;DHT22;27185;52.040;4.490;2024-03-02T15:31:59;15.70;99.90
41447;DHT22;27185;52.040;4.490;2024-03-02T15:34:45;15.70;99.90
41447;DHT22;27185;52.040;4.490;2024-03-02T15:37:30;15.70;99.90
41447;DHT22;27185;52.040;4.490;2024-03-02T15:40:22;15.80;99.90
41447;DHT22;27185;52.040;4.490;2024-03-02T15:43:08;15.80;99.90
41447;DHT22;27185;52.040;4.490;2024-03-02T15:45:54;15.90;99.90
41447;DHT22;27185;52.040;4.490;2024-03-02T15:48:39;15.80;99.90
41447;DHT22;27185;52.040;4.490;2024-03-02T15:51:25;15.80;99.90
41447;DHT22;27185;52.040;4.490;2024-03-02T15:54:11;15.80;99.90
41447;DHT22;27185;52.040;4.490;2024-03-02T15:56:56;15.70;99.90
41447;DHT22;27185;52.040;4.490;2024-03-02T15:59:45;15.70;99.90
41447;DHT22;27185;52.040;4.490;2024-03-02T16:02:31;15.60;99.90
41447;DHT22;27185;52.040;4.490;2024-03-02T16:05:17;15.60;99.90
41447;DHT22;27185;52.040;4.490;2024-03-02T16:08:04;15.50;99.90
41447;DHT22;27185;52.040;4.490;2024-03-02T16:10:50;15.40;99.90
41447;DHT22;27185;52.040;4.490;2024-03-02T16:13:37;15.30;99.90
41447;DHT22;27185;52.040;4.490;2024-03-02T16:16:23;15.30;99.90
41447;DHT22;27185;52.040;4.490;2024-03-02T16:19:09;15.20;99.90
41447;DHT22;27185;52.040;4.490;2024-03-02T16:21:54;15.20;99.90
41447;DHT22;27185;52.040;4.490;2024-03-02T16:24:40;15.10;99.90
41447;DHT22;27185;52.040;4.490;2024-03-02T16:27:26;15.00;99.90
41447;DHT22;27185;52.040;4.490;2024-03-02T16:30:13;15.00;99.90
41447;DHT22;27185;52.040;4.490;2024-03-02T16:32:59;14.90;99.90
41447;DHT22;27185;52.040;4.490;2024-03-02T16:35:45;14.90;99.90
41447;DHT22;27185;52.040;4.490;2024-03-02T16:38:33;14.80;99.90
41447;DHT22;27185;52.040;4.490;2024-03-02T16:41:19;14.80;99.90
41447;DHT22;27185;52.040;4.490;2024-03-02T16:44:05;14.70;99.90
41447;DHT22;27185;52.040;4.490;2024-03-02T16:46:50;14.70;99.90
41447;DHT22;27185;52.040;4.490;2024-03-02T16:49:36;14.70;99.90
41447;DHT22;27185;52.040;4.490;2024-03-02T16:52:22;14.60;99.90
41447;DHT22;27185;52.040;4.490;2024-03-02T16:55:09;14.60;99.90
41447;DHT22;27185;52.040;4.490;2024-03-02T16:57:55;14.50;99.90
41447;DHT22;27185;52.040;4.490;2024-03-02T17:00:41;14.50;99.90
41447;DHT22;27185;52.040;4.490;2024-03-02T17:03:26;14.40;99.90
41447;DHT22;27185;52.040;4.490;2024-03-02T17:06:12;14.40;99.90
41447;DHT22;27185;52.040;4.490;2024-03-02T17:08:58;14.30;99.90
41447;DHT22;27185;52.040;4.490;2024-03-02T17:11:43;14.30;99.90
41447;DHT22;27185;52.040;4.490;2024-03-02T17:14:29;14.30;99.90
41447;DHT22;27185;52.040;4.490;2024-03-02T17:17:15;14.30;99.90
41447;DHT22;27185;52.040;4.490;2024-03-02T17:20:04;14.20;99.90
41447;DHT22;27185;52.040;4.490;2024-03-02T17:22:52;14.20;99.90
41447;DHT22;27185;52.040;4.490;2024-03-02T17:25:38;14.20;99.90
41447;DHT22;27185;52.040;4.490;2024-03-02T17:28:25;14.20;99.90
41447;DHT22;27185;52.040;4.490;2024-03-02T17:31:11;14.10;99.90
41447;DHT22;27185;52.040;4.490;2024-03-02T17:33:57;14.10;99.90
41447;DHT22;27185;52.040;4.490;2024-03-02T17:36:42;14.10;99.90
41447;DHT22;27185;52.040;4.490;2024-03-02T17:39:28;14.10;99.90
41447;DHT22;27185;52.040;4.490;2024-03-02T17:42:14;14.00;99.90
41447;DHT22;27185;52.040;4.490;2024-03-02T17:45:00;14.00;99.90
41447;DHT22;27185;52.040;4.490;2024-03-02T17:47:45;14.00;99.90
41447;DHT22;27185;52.040;4.490;2024-03-02T17:50:31;13.90;99.90
41447;DHT22;27185;52.040;4.490;2024-03-02T17:53:17;13.90;99.90
41447;DHT22;27185;52.040;4.490;2024-03-02T17:56:03;13.90;99.90
41447;DHT22;27185;52.040;4.490;2024-03-02T17:58:49;13.80;99.90